アイウン の空港の天気 - METARとTAF

アイウン/ハッサン空港 ( GMML / EUN ) - 西サハラ アイウン
飛行場実況気象(Metar)
観測時間04/21 17:00 CET (04/21 16:00 UTC)
風向・風速北北西 9m/s
視程-
天気現象
全天の8割程度の雲 雲底高度 820m
全天の4割程度の雲 雲底高度 1130m
気温22℃
湿度60%
気圧1014hPa
METARGMML 211600Z 34017KT BKN027 SCT037 22/14 Q1014 NOSIG
過去の天気等 Google飛行場航空写真 Wunderground天気予報

過去48時間のMETAR

飛行場予報(TAF)
発表時間: 4/21 12:00 CET (4/21 11:00 UTC)
予報対象時間: 21日13時 CET ~ 22日19時 CET
風向・風速北 6m/s
視程10km以上
全天の8割程度の雲 雲底高度 700m
TAF GMML 211100Z 2112/2218 36012KT 9999 BKN023